createdAt,value
2019-05-26T00:00:58.112Z,55.50
2019-05-26T00:03:25.253Z,55.30
2019-05-26T00:05:52.050Z,56.20
2019-05-26T00:08:18.849Z,57.40
2019-05-26T00:10:45.801Z,57.80
2019-05-26T00:13:12.583Z,58.90
2019-05-26T00:15:39.450Z,59.40
2019-05-26T00:18:06.305Z,60.20
2019-05-26T00:20:33.117Z,59.60
2019-05-26T00:22:59.908Z,60.10
2019-05-26T00:25:26.749Z,61.60
2019-05-26T00:27:53.543Z,63.00
2019-05-26T00:30:20.665Z,63.80
2019-05-26T00:32:47.677Z,63.40
2019-05-26T00:35:14.958Z,62.70
2019-05-26T00:37:50.412Z,62.00
2019-05-26T00:40:11.535Z,62.70
2019-05-26T00:42:38.338Z,63.00
2019-05-26T00:45:06.932Z,62.90
2019-05-26T00:47:33.773Z,63.00
2019-05-26T00:50:00.658Z,63.10
2019-05-26T00:52:27.733Z,63.10
2019-05-26T00:54:54.604Z,63.50
2019-05-26T00:57:21.424Z,63.60
2019-05-26T00:59:48.239Z,64.20
2019-05-26T01:02:15.442Z,64.80
2019-05-26T01:04:42.240Z,64.10
2019-05-26T01:07:09.195Z,64.60
2019-05-26T01:09:36.031Z,64.20
2019-05-26T01:12:03.406Z,64.20
2019-05-26T01:14:30.195Z,64.90
2019-05-26T01:16:57.105Z,65.70
2019-05-26T01:19:23.918Z,66.80
2019-05-26T01:21:50.969Z,67.90
2019-05-26T01:24:18.242Z,67.40
2019-05-26T01:26:45.039Z,67.00
2019-05-26T01:29:11.833Z,66.60
2019-05-26T01:31:38.647Z,66.80
2019-05-26T01:34:05.747Z,67.30
2019-05-26T01:36:33.634Z,67.20
2019-05-26T01:39:01.144Z,67.10
2019-05-26T01:41:28.054Z,67.30
2019-05-26T01:43:54.875Z,67.90
2019-05-26T01:46:21.828Z,67.80
2019-05-26T01:48:48.878Z,67.10
2019-05-26T01:51:15.760Z,67.40
2019-05-26T01:53:42.779Z,67.00
2019-05-26T01:56:09.707Z,68.10
2019-05-26T01:58:36.520Z,68.40
2019-05-26T02:01:03.914Z,68.30
2019-05-26T02:03:30.895Z,68.80
2019-05-26T02:05:57.976Z,68.80
2019-05-26T02:08:38.380Z,68.20
2019-05-26T02:10:53.762Z,68.80
2019-05-26T02:13:20.673Z,69.00
2019-05-26T02:15:48.254Z,69.40
2019-05-26T02:18:15.262Z,69.30
2019-05-26T02:20:42.156Z,69.60
2019-05-26T02:23:09.262Z,69.70
2019-05-26T02:25:36.089Z,70.10
2019-05-26T02:28:02.902Z,69.70
2019-05-26T02:30:30.005Z,69.40
2019-05-26T02:32:57.069Z,69.70
2019-05-26T02:35:24.585Z,70.00
2019-05-26T02:37:51.605Z,69.50
2019-05-26T02:40:21.118Z,69.90
2019-05-26T02:42:48.491Z,70.30
2019-05-26T02:45:17.497Z,70.20
2019-05-26T02:47:45.957Z,70.50
2019-05-26T02:50:14.247Z,70.80
2019-05-26T02:52:41.218Z,69.90
2019-05-26T02:55:09.013Z,69.90
2019-05-26T02:57:35.817Z,70.10
2019-05-26T03:00:11.531Z,70.60
2019-05-26T03:02:39.161Z,70.20
2019-05-26T03:05:10.561Z,72.00
2019-05-26T03:07:42.306Z,72.40
2019-05-26T03:10:09.904Z,71.30
2019-05-26T03:12:40.985Z,72.00
2019-05-26T03:15:09.447Z,71.90
2019-05-26T03:17:39.922Z,71.90
2019-05-26T03:20:07.432Z,71.90
2019-05-26T03:22:39.510Z,72.00
2019-05-26T03:25:07.166Z,71.80
2019-05-26T03:27:34.200Z,71.30
2019-05-26T03:30:01.218Z,71.10
2019-05-26T03:32:28.410Z,70.60
2019-05-26T03:34:55.234Z,70.80
2019-05-26T03:37:22.585Z,71.70
2019-05-26T03:39:49.814Z,72.20
2019-05-26T03:42:16.663Z,71.60
2019-05-26T03:44:43.546Z,71.30
2019-05-26T03:47:10.365Z,71.10
2019-05-26T03:49:37.172Z,72.70
2019-05-26T03:52:03.990Z,72.80
2019-05-26T03:54:30.895Z,72.30
2019-05-26T03:56:57.858Z,71.50
2019-05-26T03:59:24.673Z,71.40
2019-05-26T04:01:56.330Z,71.40
2019-05-26T04:04:20.704Z,71.50
2019-05-26T04:06:47.589Z,72.00
2019-05-26T04:09:14.372Z,72.00
2019-05-26T04:11:41.279Z,71.70
2019-05-26T04:14:08.096Z,71.70
2019-05-26T04:16:34.891Z,72.00
2019-05-26T04:19:02.013Z,72.80
2019-05-26T04:21:28.815Z,73.70
2019-05-26T04:23:55.807Z,76.10
2019-05-26T04:26:22.793Z,76.10
2019-05-26T04:28:49.761Z,76.30
2019-05-26T04:31:16.529Z,75.50
2019-05-26T04:33:43.323Z,76.80
2019-05-26T04:36:10.121Z,77.80
2019-05-26T04:38:36.926Z,77.60
2019-05-26T04:41:03.889Z,77.50
2019-05-26T04:43:30.740Z,76.80
2019-05-26T04:45:57.624Z,75.60
2019-05-26T04:48:24.422Z,75.00
2019-05-26T04:50:51.292Z,74.60
2019-05-26T04:53:18.183Z,74.20
2019-05-26T04:55:44.982Z,74.30
2019-05-26T04:58:11.798Z,73.90
2019-05-26T05:00:38.703Z,73.20
2019-05-26T05:03:05.487Z,73.00
2019-05-26T05:05:32.388Z,73.00
2019-05-26T05:07:59.194Z,72.90
2019-05-26T05:10:41.242Z,72.90
2019-05-26T05:12:54.828Z,73.80
2019-05-26T05:15:21.628Z,74.50
2019-05-26T05:17:48.440Z,73.90
2019-05-26T05:20:15.564Z,74.30
2019-05-26T05:22:42.425Z,74.30
2019-05-26T05:25:14.613Z,74.80
2019-05-26T05:27:38.078Z,74.50
2019-05-26T05:30:07.839Z,74.30
2019-05-26T05:32:34.630Z,73.90
2019-05-26T05:35:01.427Z,72.60
2019-05-26T05:37:28.360Z,72.20
2019-05-26T05:39:55.147Z,71.50
2019-05-26T05:42:21.961Z,71.70
2019-05-26T05:44:48.777Z,72.90
2019-05-26T05:47:15.557Z,73.70
2019-05-26T05:49:42.410Z,72.80
2019-05-26T05:52:09.213Z,71.50
2019-05-26T05:54:35.998Z,73.20
2019-05-26T05:57:03.351Z,72.70
2019-05-26T05:59:30.147Z,72.30
2019-05-26T06:01:56.924Z,72.40
2019-05-26T06:04:23.769Z,72.20
2019-05-26T06:06:50.549Z,72.30
2019-05-26T06:09:17.336Z,72.50
2019-05-26T06:11:44.180Z,71.60
2019-05-26T06:14:10.960Z,70.60
2019-05-26T06:16:37.793Z,70.50
2019-05-26T06:19:04.572Z,69.40
2019-05-26T06:21:31.361Z,69.80
2019-05-26T06:23:58.188Z,70.10
2019-05-26T06:26:25.267Z,70.40
2019-05-26T06:28:52.697Z,69.50
2019-05-26T06:31:19.757Z,70.50
2019-05-26T06:33:46.569Z,70.10
2019-05-26T06:36:13.996Z,71.30
2019-05-26T06:38:40.830Z,72.20
2019-05-26T06:41:07.656Z,71.00
2019-05-26T06:43:34.445Z,70.40
2019-05-26T06:46:01.219Z,70.00
2019-05-26T06:48:28.508Z,70.40
2019-05-26T06:50:55.390Z,69.30
2019-05-26T06:53:22.176Z,69.60
2019-05-26T06:55:49.513Z,68.50
2019-05-26T06:58:16.314Z,68.80
2019-05-26T07:00:43.209Z,69.20
2019-05-26T07:03:10.087Z,69.60
2019-05-26T07:05:36.877Z,69.00
2019-05-26T07:08:03.807Z,67.80
2019-05-26T07:10:30.853Z,67.60
2019-05-26T07:12:57.699Z,67.40
2019-05-26T07:15:24.498Z,67.90
2019-05-26T07:17:51.330Z,66.40
2019-05-26T07:20:18.124Z,66.00
2019-05-26T07:22:45.641Z,66.50
2019-05-26T07:25:13.183Z,67.70
2019-05-26T07:27:40.040Z,65.80
2019-05-26T07:30:07.958Z,66.00
2019-05-26T07:32:35.010Z,65.10
2019-05-26T07:35:02.985Z,65.30
2019-05-26T07:37:30.003Z,65.20
2019-05-26T07:39:57.130Z,65.60
2019-05-26T07:42:24.046Z,65.40
2019-05-26T07:44:50.885Z,65.40
2019-05-26T07:47:17.724Z,64.50
2019-05-26T07:49:44.739Z,64.40
2019-05-26T07:52:11.544Z,64.30
2019-05-26T07:54:38.504Z,65.20
2019-05-26T07:57:05.281Z,64.40
2019-05-26T07:59:32.163Z,64.10
2019-05-26T08:01:59.155Z,63.80
2019-05-26T08:04:25.942Z,64.10
2019-05-26T08:06:52.731Z,63.50
2019-05-26T08:09:19.550Z,63.30
2019-05-26T08:11:46.345Z,62.90
2019-05-26T08:14:13.359Z,62.00
2019-05-26T08:16:40.185Z,62.00
2019-05-26T08:19:06.981Z,61.80
2019-05-26T08:21:33.782Z,62.70
2019-05-26T08:24:00.972Z,63.40
2019-05-26T08:26:27.767Z,63.60
2019-05-26T08:28:54.808Z,63.40
2019-05-26T08:31:22.330Z,63.70
2019-05-26T08:33:49.139Z,63.70
2019-05-26T08:36:15.910Z,65.60
2019-05-26T08:38:42.751Z,64.30
2019-05-26T08:41:09.684Z,65.00
2019-05-26T08:43:36.463Z,63.90
2019-05-26T08:46:03.261Z,63.50
2019-05-26T08:48:30.078Z,63.70
2019-05-26T08:50:56.871Z,63.70
2019-05-26T08:53:23.749Z,62.50
2019-05-26T08:55:50.555Z,62.70
2019-05-26T08:58:17.339Z,62.30
2019-05-26T09:00:44.190Z,62.50
2019-05-26T09:03:11.019Z,63.00
2019-05-26T09:05:37.869Z,62.60
2019-05-26T09:08:07.965Z,62.30
2019-05-26T09:10:33.481Z,62.00
2019-05-26T09:13:01.653Z,62.70
2019-05-26T09:15:29.076Z,62.40
2019-05-26T09:17:55.984Z,61.20
2019-05-26T09:20:23.387Z,61.60
2019-05-26T09:22:50.462Z,62.00
2019-05-26T09:25:17.589Z,61.70
2019-05-26T09:27:44.522Z,61.90
2019-05-26T09:30:12.410Z,61.20
2019-05-26T09:32:39.468Z,61.30
2019-05-26T09:35:07.425Z,60.20
2019-05-26T09:37:34.553Z,59.20
2019-05-26T09:40:01.625Z,59.40
2019-05-26T09:42:28.551Z,59.00
2019-05-26T09:44:55.527Z,59.10
2019-05-26T09:47:22.544Z,58.50
2019-05-26T09:49:49.724Z,58.70
2019-05-26T09:52:16.772Z,58.60
2019-05-26T09:54:43.983Z,58.70
2019-05-26T09:57:10.822Z,58.30
2019-05-26T09:59:37.816Z,57.80
2019-05-26T10:02:05.557Z,55.80
2019-05-26T10:04:32.600Z,55.40
2019-05-26T10:07:00.109Z,54.90
2019-05-26T10:09:26.992Z,55.70
2019-05-26T10:11:53.808Z,56.30
2019-05-26T10:14:21.072Z,56.40
2019-05-26T10:16:48.127Z,56.20
2019-05-26T10:19:15.010Z,55.60
2019-05-26T10:21:42.150Z,54.80
2019-05-26T10:24:09.724Z,54.80
2019-05-26T10:26:37.007Z,53.60
2019-05-26T10:29:03.906Z,53.50
2019-05-26T10:31:30.926Z,51.30
2019-05-26T11:45:23.170Z,49.80
2019-05-26T11:47:49.973Z,49.70
2019-05-26T11:50:18.085Z,49.30
2019-05-26T11:52:45.390Z,48.80
2019-05-26T11:55:12.975Z,48.70
2019-05-26T11:57:39.770Z,47.90
2019-05-26T12:00:11.595Z,46.50
2019-05-26T12:02:38.500Z,47.30
2019-05-26T12:05:06.863Z,46.30
2019-05-26T12:07:33.741Z,46.70
2019-05-26T12:10:00.548Z,46.70
2019-05-26T12:12:27.333Z,46.10
2019-05-26T12:14:54.175Z,46.00
2019-05-26T12:17:21.179Z,46.00
2019-05-26T12:19:47.957Z,46.60
2019-05-26T12:22:14.904Z,45.50
2019-05-26T12:24:41.928Z,44.80
2019-05-26T12:27:08.740Z,45.30
2019-05-26T12:29:35.585Z,42.00
2019-05-26T12:32:02.988Z,43.90
2019-05-26T12:34:29.789Z,44.20
2019-05-26T12:36:56.598Z,42.30
2019-05-26T12:39:23.395Z,42.50
2019-05-26T12:41:50.177Z,42.30
2019-05-26T12:44:17.204Z,41.90
2019-05-26T12:46:44.304Z,41.30
2019-05-26T12:49:11.107Z,41.80
2019-05-26T12:51:37.992Z,42.00
2019-05-26T12:54:04.793Z,41.80
2019-05-26T12:56:31.697Z,41.40
2019-05-26T12:58:58.513Z,40.70
2019-05-26T13:01:25.296Z,40.60
2019-05-26T13:03:52.113Z,40.30
2019-05-26T13:06:18.954Z,40.10
2019-05-26T13:08:45.772Z,39.30
2019-05-26T13:11:12.878Z,39.90
2019-05-26T13:13:40.176Z,39.20
2019-05-26T13:16:07.304Z,37.70
2019-05-26T13:18:34.092Z,38.80
2019-05-26T13:21:00.982Z,38.70
2019-05-26T13:23:27.840Z,37.70
2019-05-26T13:25:54.631Z,38.30
2019-05-26T13:28:21.569Z,35.50
2019-05-26T13:30:48.397Z,37.80
2019-05-26T13:33:15.394Z,38.20
2019-05-26T13:35:42.181Z,36.70
2019-05-26T13:38:09.020Z,36.00
2019-05-26T13:40:35.851Z,37.70
2019-05-26T13:43:02.941Z,37.90
2019-05-26T13:45:29.985Z,38.20
2019-05-26T13:47:57.385Z,37.90
2019-05-26T13:50:24.967Z,37.90
2019-05-26T13:52:51.873Z,37.60
2019-05-26T13:55:19.272Z,38.30
2019-05-26T13:57:49.210Z,38.00
2019-05-26T14:00:16.293Z,38.30
2019-05-26T14:02:43.245Z,37.30
2019-05-26T14:05:10.652Z,38.30
2019-05-26T14:07:37.454Z,38.30
2019-05-26T14:10:05.547Z,38.30
2019-05-26T14:12:32.400Z,38.00
2019-05-26T14:14:59.446Z,38.30
2019-05-26T14:17:28.630Z,38.30
2019-05-26T14:19:58.853Z,37.40
2019-05-26T14:22:25.856Z,37.90
2019-05-26T14:24:54.169Z,37.20
2019-05-26T14:27:21.747Z,37.00
2019-05-26T14:29:48.541Z,36.20
2019-05-26T14:32:15.333Z,36.50
2019-05-26T14:34:42.259Z,35.50
2019-05-26T14:37:09.045Z,36.20
2019-05-26T14:39:36.028Z,35.40
2019-05-26T14:42:03.481Z,36.20
2019-05-26T14:44:31.024Z,35.20
2019-05-26T14:46:57.947Z,33.90
2019-05-26T14:49:24.783Z,35.30
2019-05-26T14:51:51.623Z,34.80
2019-05-26T14:54:18.398Z,34.40
2019-05-26T14:56:45.281Z,35.20
2019-05-26T14:59:12.088Z,34.70
2019-05-26T15:01:38.894Z,35.10
2019-05-26T15:04:05.936Z,35.30
2019-05-26T15:06:32.839Z,35.10
2019-05-26T15:08:59.618Z,34.90
2019-05-26T15:11:26.469Z,34.30
2019-05-26T15:13:53.312Z,33.00
2019-05-26T15:16:20.119Z,33.50
2019-05-26T15:18:47.032Z,34.00
2019-05-26T15:21:13.818Z,33.80
2019-05-26T15:23:40.641Z,33.00
2019-05-26T15:26:07.496Z,33.20
2019-05-26T15:28:34.281Z,33.20
2019-05-26T15:31:01.127Z,33.60
2019-05-26T15:33:28.319Z,32.50
2019-05-26T15:35:55.099Z,32.90
2019-05-26T15:38:21.931Z,31.10
2019-05-26T15:40:48.734Z,32.00
2019-05-26T15:43:15.520Z,31.20
2019-05-26T15:45:43.089Z,31.50
2019-05-26T15:48:10.029Z,31.90
2019-05-26T15:50:36.827Z,31.30
2019-05-26T15:53:03.607Z,31.40
2019-05-26T15:55:30.490Z,30.70
2019-05-26T15:57:57.409Z,30.70
2019-05-26T16:00:24.551Z,30.80
2019-05-26T16:02:51.368Z,30.90
2019-05-26T16:05:18.301Z,30.60
2019-05-26T16:07:45.114Z,30.20
2019-05-26T16:10:13.847Z,29.50
2019-05-26T16:12:40.611Z,28.70
2019-05-26T16:15:08.920Z,28.60
2019-05-26T16:17:38.731Z,28.30
2019-05-26T16:20:08.180Z,27.60
2019-05-26T16:22:34.960Z,28.30
2019-05-26T16:25:01.749Z,28.60
2019-05-26T16:27:29.132Z,26.30
2019-05-26T16:29:55.926Z,27.20
2019-05-26T16:32:22.782Z,26.50
2019-05-26T16:34:49.749Z,26.50
2019-05-26T16:37:16.566Z,26.80
2019-05-26T16:39:43.586Z,26.50
2019-05-26T16:42:10.376Z,25.20
2019-05-26T16:44:37.329Z,25.60
2019-05-26T16:47:04.607Z,25.50
2019-05-26T16:49:31.387Z,26.20
2019-05-26T16:51:58.470Z,25.50
2019-05-26T16:54:25.371Z,24.60
2019-05-26T16:56:52.392Z,25.10
2019-05-26T16:59:19.588Z,25.50
2019-05-26T17:01:46.399Z,25.50
2019-05-26T17:04:13.245Z,25.30
2019-05-26T17:06:40.060Z,22.50
2019-05-26T17:09:07.997Z,24.40
2019-05-26T17:11:34.795Z,24.10
2019-05-26T17:14:01.593Z,24.90
2019-05-26T17:16:28.436Z,23.00
2019-05-26T17:18:55.248Z,24.10
2019-05-26T17:21:22.041Z,24.60
2019-05-26T17:23:49.212Z,24.20
2019-05-26T17:26:16.022Z,23.40
2019-05-26T17:28:43.029Z,24.50
2019-05-26T17:31:10.046Z,23.60
2019-05-26T17:33:36.839Z,23.90
2019-05-26T17:36:03.833Z,23.30
2019-05-26T17:38:30.860Z,23.70
2019-05-26T17:40:57.791Z,24.60
2019-05-26T17:43:24.562Z,24.10
2019-05-26T17:45:51.742Z,24.40
2019-05-26T17:48:18.830Z,24.30
2019-05-26T17:50:45.618Z,23.70
2019-05-26T17:53:12.605Z,24.30
2019-05-26T17:55:39.393Z,25.20
2019-05-26T17:58:06.086Z,25.10
2019-05-26T18:00:32.947Z,24.10
2019-05-26T18:02:59.739Z,23.70
2019-05-26T18:05:26.532Z,23.70
2019-05-26T18:07:53.583Z,23.50
2019-05-26T18:10:20.870Z,24.10
2019-05-26T18:12:47.699Z,23.60
2019-05-26T18:15:14.897Z,24.20
2019-05-26T18:17:47.269Z,23.90
2019-05-26T18:20:11.227Z,24.40
2019-05-26T18:22:38.287Z,23.70
2019-05-26T18:25:07.888Z,23.50
2019-05-26T18:27:34.731Z,23.20
2019-05-26T18:30:01.732Z,23.60
2019-05-26T18:32:28.616Z,23.40
2019-05-26T18:34:55.418Z,23.90
2019-05-26T18:37:22.529Z,23.40
2019-05-26T18:39:49.340Z,23.10
2019-05-26T18:42:16.174Z,24.40
2019-05-26T18:44:43.333Z,23.50
2019-05-26T18:47:10.239Z,24.90
2019-05-26T18:49:37.076Z,29.30
2019-05-26T18:52:05.198Z,26.50
2019-05-26T18:54:32.000Z,25.60
2019-05-26T18:56:59.097Z,27.90
2019-05-26T18:59:25.950Z,28.80
2019-05-26T19:01:52.790Z,31.30
2019-05-26T19:04:19.637Z,29.60
2019-05-26T19:06:46.537Z,31.20
2019-05-26T19:09:13.687Z,30.60
2019-05-26T19:11:40.847Z,30.20
2019-05-26T19:14:08.058Z,31.60
2019-05-26T19:16:35.067Z,31.80
2019-05-26T19:19:02.538Z,31.70
2019-05-26T19:21:29.436Z,32.30
2019-05-26T19:23:56.225Z,34.20
2019-05-26T19:26:23.002Z,32.90
2019-05-26T19:28:50.419Z,32.40
2019-05-26T19:31:17.221Z,33.20
2019-05-26T19:33:44.035Z,34.40
2019-05-26T19:36:10.860Z,33.70
2019-05-26T19:38:37.648Z,35.50
2019-05-26T19:41:04.659Z,34.80
2019-05-26T19:43:31.486Z,33.70
2019-05-26T19:45:58.340Z,33.50
2019-05-26T19:48:35.555Z,34.90
2019-05-26T19:50:54.649Z,35.10
2019-05-26T19:53:21.440Z,35.20
2019-05-26T19:55:48.227Z,34.60
2019-05-26T19:58:15.436Z,34.90
2019-05-26T20:00:42.359Z,35.70
2019-05-26T20:03:09.332Z,36.40
2019-05-26T20:05:36.152Z,36.90
2019-05-26T20:08:03.233Z,37.80
2019-05-26T20:10:30.172Z,36.70
2019-05-26T20:12:57.132Z,36.20
2019-05-26T20:15:24.186Z,35.70
2019-05-26T20:17:51.048Z,36.00
2019-05-26T20:20:19.205Z,36.10
2019-05-26T20:22:46.234Z,36.80
2019-05-26T20:25:13.539Z,37.50
2019-05-26T20:27:40.706Z,37.90
2019-05-26T20:30:08.607Z,37.90
2019-05-26T20:32:35.747Z,37.40
2019-05-26T20:35:07.177Z,37.10
2019-05-26T20:37:34.284Z,37.60
2019-05-26T20:40:01.664Z,47.00
2019-05-26T20:42:28.637Z,38.70
2019-05-26T20:44:55.463Z,44.70
2019-05-26T20:47:22.292Z,46.50
2019-05-26T20:49:49.990Z,46.00
2019-05-26T20:52:17.008Z,42.80
2019-05-26T20:54:44.080Z,44.00
2019-05-26T20:57:11.422Z,45.80
2019-05-26T20:59:38.484Z,44.70
2019-05-26T21:02:05.609Z,45.30
2019-05-26T21:04:32.475Z,45.20
2019-05-26T21:06:59.422Z,43.50
2019-05-26T21:09:26.202Z,45.20
2019-05-26T21:11:52.996Z,46.10
2019-05-26T21:14:20.401Z,44.50
2019-05-26T21:16:47.238Z,43.50
2019-05-26T21:19:14.223Z,43.50
2019-05-26T21:21:41.070Z,44.60
2019-05-26T21:24:07.870Z,44.80
2019-05-26T21:26:34.981Z,46.20
2019-05-26T21:29:01.845Z,45.80
2019-05-26T21:31:28.629Z,42.90
2019-05-26T21:33:55.861Z,42.70
2019-05-26T21:36:22.642Z,45.10
2019-05-26T21:38:49.437Z,45.90
2019-05-26T21:41:16.269Z,44.90
2019-05-26T21:43:43.371Z,45.80
2019-05-26T21:46:10.237Z,46.20
2019-05-26T21:48:37.323Z,46.00
2019-05-26T21:51:04.121Z,46.00
2019-05-26T21:53:31.133Z,46.70
2019-05-26T21:55:58.149Z,45.30
2019-05-26T21:58:24.977Z,43.90
2019-05-26T22:00:52.463Z,44.20
2019-05-26T22:03:19.599Z,45.70
2019-05-26T22:05:46.398Z,46.90
2019-05-26T22:08:13.199Z,46.50
2019-05-26T22:10:40.493Z,47.20
2019-05-26T22:13:07.300Z,46.80
2019-05-26T22:15:34.108Z,47.60
2019-05-26T22:18:00.943Z,46.80
2019-05-26T22:20:28.124Z,47.40
2019-05-26T22:22:54.961Z,47.70
2019-05-26T22:25:21.789Z,46.90
2019-05-26T22:27:48.572Z,46.20
2019-05-26T22:30:16.084Z,47.10
2019-05-26T22:32:43.233Z,46.10
2019-05-26T22:35:10.073Z,46.40
2019-05-26T22:37:37.026Z,44.30
2019-05-26T22:40:06.254Z,44.30
2019-05-26T22:42:33.137Z,45.50
2019-05-26T22:44:59.949Z,42.50
2019-05-26T22:47:26.748Z,42.20
2019-05-26T22:49:55.360Z,42.30
2019-05-26T22:52:22.150Z,43.00
2019-05-26T22:54:49.399Z,43.30
2019-05-26T22:57:16.225Z,43.00
2019-05-26T22:59:43.017Z,43.10
2019-05-26T23:02:09.975Z,42.00
2019-05-26T23:04:36.766Z,42.90
2019-05-26T23:07:03.582Z,43.30
2019-05-26T23:09:30.834Z,44.40
2019-05-26T23:11:57.624Z,44.70
2019-05-26T23:14:24.518Z,45.40
2019-05-26T23:16:51.384Z,45.70
2019-05-26T23:19:19.687Z,44.90
2019-05-26T23:21:46.891Z,44.90
2019-05-26T23:24:13.702Z,45.60
2019-05-26T23:26:40.633Z,45.00
2019-05-26T23:29:07.412Z,45.90
2019-05-26T23:31:34.311Z,44.60
2019-05-26T23:34:01.430Z,44.20
2019-05-26T23:36:28.212Z,44.40
2019-05-26T23:38:55.004Z,44.80
2019-05-26T23:41:21.812Z,44.80
2019-05-26T23:43:48.641Z,44.80
2019-05-26T23:46:15.636Z,45.80
2019-05-26T23:48:42.440Z,44.70
2019-05-26T23:51:09.218Z,44.50
2019-05-26T23:53:36.309Z,44.60
2019-05-26T23:56:03.208Z,44.50
2019-05-26T23:58:30.013Z,44.60
